sensor_id;sensor_type;location;lat;lon;timestamp;P1;durP1;ratioP1;P2;durP2;ratioP2
11933;SDS011;6026;48.784;9.198;2023-10-31T00:00:01;0.60;;;0.60;;
11933;SDS011;6026;48.784;9.198;2023-10-31T00:02:28;0.50;;;0.50;;
11933;SDS011;6026;48.784;9.198;2023-10-31T00:04:54;0.63;;;0.63;;
11933;SDS011;6026;48.784;9.198;2023-10-31T00:07:19;0.70;;;0.70;;
11933;SDS011;6026;48.784;9.198;2023-10-31T00:09:45;0.70;;;0.70;;
11933;SDS011;6026;48.784;9.198;2023-10-31T00:12:10;0.50;;;0.50;;
11933;SDS011;6026;48.784;9.198;2023-10-31T00:14:36;0.50;;;0.50;;
11933;SDS011;6026;48.784;9.198;2023-10-31T00:17:03;0.70;;;0.70;;
11933;SDS011;6026;48.784;9.198;2023-10-31T00:19:29;0.50;;;0.50;;
11933;SDS011;6026;48.784;9.198;2023-10-31T00:21:54;0.53;;;0.53;;
11933;SDS011;6026;48.784;9.198;2023-10-31T00:24:20;0.60;;;0.60;;
11933;SDS011;6026;48.784;9.198;2023-10-31T00:26:46;0.53;;;0.53;;
11933;SDS011;6026;48.784;9.198;2023-10-31T00:29:11;0.40;;;0.40;;
11933;SDS011;6026;48.784;9.198;2023-10-31T00:31:37;0.57;;;0.57;;
11933;SDS011;6026;48.784;9.198;2023-10-31T00:34:06;0.53;;;0.53;;
11933;SDS011;6026;48.784;9.198;2023-10-31T00:36:32;0.50;;;0.50;;
11933;SDS011;6026;48.784;9.198;2023-10-31T00:38:58;0.63;;;0.63;;
11933;SDS011;6026;48.784;9.198;2023-10-31T00:41:24;0.47;;;0.47;;
11933;SDS011;6026;48.784;9.198;2023-10-31T00:43:49;0.60;;;0.60;;
11933;SDS011;6026;48.784;9.198;2023-10-31T00:46:15;0.70;;;0.70;;
11933;SDS011;6026;48.784;9.198;2023-10-31T00:48:40;0.67;;;0.67;;
11933;SDS011;6026;48.784;9.198;2023-10-31T00:51:06;0.70;;;0.70;;
11933;SDS011;6026;48.784;9.198;2023-10-31T00:53:32;0.60;;;0.60;;
11933;SDS011;6026;48.784;9.198;2023-10-31T00:55:57;0.77;;;0.77;;
11933;SDS011;6026;48.784;9.198;2023-10-31T00:58:23;0.70;;;0.70;;
11933;SDS011;6026;48.784;9.198;2023-10-31T01:00:48;0.73;;;0.73;;
11933;SDS011;6026;48.784;9.198;2023-10-31T01:03:14;0.67;;;0.67;;
11933;SDS011;6026;48.784;9.198;2023-10-31T01:05:40;0.60;;;0.60;;
11933;SDS011;6026;48.784;9.198;2023-10-31T01:08:05;0.60;;;0.60;;
11933;SDS011;6026;48.784;9.198;2023-10-31T01:10:31;0.50;;;0.50;;
11933;SDS011;6026;48.784;9.198;2023-10-31T01:12:57;0.53;;;0.53;;
11933;SDS011;6026;48.784;9.198;2023-10-31T01:15:22;0.30;;;0.30;;
11933;SDS011;6026;48.784;9.198;2023-10-31T01:17:48;0.60;;;0.60;;
11933;SDS011;6026;48.784;9.198;2023-10-31T01:20:13;0.60;;;0.60;;
11933;SDS011;6026;48.784;9.198;2023-10-31T01:22:39;0.50;;;0.50;;
11933;SDS011;6026;48.784;9.198;2023-10-31T01:25:05;0.43;;;0.43;;
11933;SDS011;6026;48.784;9.198;2023-10-31T01:27:31;0.60;;;0.60;;
11933;SDS011;6026;48.784;9.198;2023-10-31T01:29:56;0.50;;;0.50;;
11933;SDS011;6026;48.784;9.198;2023-10-31T01:32:22;0.53;;;0.53;;
11933;SDS011;6026;48.784;9.198;2023-10-31T01:34:47;0.80;;;0.80;;
11933;SDS011;6026;48.784;9.198;2023-10-31T01:37:13;0.60;;;0.60;;
11933;SDS011;6026;48.784;9.198;2023-10-31T01:39:39;0.50;;;0.50;;
11933;SDS011;6026;48.784;9.198;2023-10-31T01:42:05;0.50;;;0.50;;
11933;SDS011;6026;48.784;9.198;2023-10-31T01:44:31;0.53;;;0.53;;
11933;SDS011;6026;48.784;9.198;2023-10-31T01:46:57;0.60;;;0.60;;
11933;SDS011;6026;48.784;9.198;2023-10-31T01:49:22;0.60;;;0.60;;
11933;SDS011;6026;48.784;9.198;2023-10-31T01:51:48;0.60;;;0.60;;
11933;SDS011;6026;48.784;9.198;2023-10-31T01:54:14;0.50;;;0.50;;
11933;SDS011;6026;48.784;9.198;2023-10-31T01:56:40;0.50;;;0.50;;
11933;SDS011;6026;48.784;9.198;2023-10-31T01:59:07;0.40;;;0.40;;
11933;SDS011;6026;48.784;9.198;2023-10-31T02:01:35;0.40;;;0.40;;
11933;SDS011;6026;48.784;9.198;2023-10-31T02:04:03;0.40;;;0.40;;
11933;SDS011;6026;48.784;9.198;2023-10-31T02:06:29;0.50;;;0.50;;
11933;SDS011;6026;48.784;9.198;2023-10-31T02:08:55;0.50;;;0.50;;
11933;SDS011;6026;48.784;9.198;2023-10-31T02:11:21;0.43;;;0.43;;
11933;SDS011;6026;48.784;9.198;2023-10-31T02:13:46;0.60;;;0.60;;
11933;SDS011;6026;48.784;9.198;2023-10-31T02:16:12;0.50;;;0.50;;
11933;SDS011;6026;48.784;9.198;2023-10-31T02:18:37;0.50;;;0.50;;
11933;SDS011;6026;48.784;9.198;2023-10-31T02:21:04;0.50;;;0.50;;
11933;SDS011;6026;48.784;9.198;2023-10-31T02:23:30;0.60;;;0.60;;
11933;SDS011;6026;48.784;9.198;2023-10-31T02:25:55;0.37;;;0.37;;
11933;SDS011;6026;48.784;9.198;2023-10-31T02:28:22;0.40;;;0.40;;
11933;SDS011;6026;48.784;9.198;2023-10-31T02:30:47;0.60;;;0.60;;
11933;SDS011;6026;48.784;9.198;2023-10-31T02:33:13;0.50;;;0.50;;
11933;SDS011;6026;48.784;9.198;2023-10-31T02:35:38;0.60;;;0.60;;
11933;SDS011;6026;48.784;9.198;2023-10-31T02:38:04;0.47;;;0.47;;
11933;SDS011;6026;48.784;9.198;2023-10-31T02:40:29;0.53;;;0.53;;
11933;SDS011;6026;48.784;9.198;2023-10-31T02:42:55;0.60;;;0.60;;
11933;SDS011;6026;48.784;9.198;2023-10-31T02:45:20;0.40;;;0.40;;
11933;SDS011;6026;48.784;9.198;2023-10-31T02:47:46;0.70;;;0.70;;
11933;SDS011;6026;48.784;9.198;2023-10-31T02:50:12;0.60;;;0.60;;
11933;SDS011;6026;48.784;9.198;2023-10-31T02:52:37;0.60;;;0.60;;
11933;SDS011;6026;48.784;9.198;2023-10-31T02:55:03;0.50;;;0.50;;
11933;SDS011;6026;48.784;9.198;2023-10-31T02:57:29;0.50;;;0.50;;
11933;SDS011;6026;48.784;9.198;2023-10-31T02:59:54;0.53;;;0.53;;
11933;SDS011;6026;48.784;9.198;2023-10-31T03:02:20;0.47;;;0.47;;
11933;SDS011;6026;48.784;9.198;2023-10-31T03:04:45;0.60;;;0.60;;
11933;SDS011;6026;48.784;9.198;2023-10-31T03:07:11;0.40;;;0.40;;
11933;SDS011;6026;48.784;9.198;2023-10-31T03:09:36;0.50;;;0.50;;
11933;SDS011;6026;48.784;9.198;2023-10-31T03:12:02;0.50;;;0.50;;
11933;SDS011;6026;48.784;9.198;2023-10-31T03:14:28;0.50;;;0.50;;
11933;SDS011;6026;48.784;9.198;2023-10-31T03:16:53;0.70;;;0.70;;
11933;SDS011;6026;48.784;9.198;2023-10-31T03:19:19;0.60;;;0.60;;
11933;SDS011;6026;48.784;9.198;2023-10-31T03:21:44;0.50;;;0.50;;
11933;SDS011;6026;48.784;9.198;2023-10-31T03:24:10;0.50;;;0.50;;
11933;SDS011;6026;48.784;9.198;2023-10-31T03:26:35;0.40;;;0.40;;
11933;SDS011;6026;48.784;9.198;2023-10-31T03:29:01;0.50;;;0.50;;
11933;SDS011;6026;48.784;9.198;2023-10-31T03:31:26;0.57;;;0.57;;
11933;SDS011;6026;48.784;9.198;2023-10-31T03:33:52;0.53;;;0.53;;
11933;SDS011;6026;48.784;9.198;2023-10-31T03:36:18;0.33;;;0.33;;
11933;SDS011;6026;48.784;9.198;2023-10-31T03:38:45;0.60;;;0.60;;
11933;SDS011;6026;48.784;9.198;2023-10-31T03:41:10;0.50;;;0.50;;
11933;SDS011;6026;48.784;9.198;2023-10-31T03:43:36;0.50;;;0.50;;
11933;SDS011;6026;48.784;9.198;2023-10-31T03:46:01;0.40;;;0.40;;
11933;SDS011;6026;48.784;9.198;2023-10-31T03:48:27;0.47;;;0.47;;
11933;SDS011;6026;48.784;9.198;2023-10-31T03:50:53;0.60;;;0.60;;
11933;SDS011;6026;48.784;9.198;2023-10-31T03:53:18;0.60;;;0.60;;
11933;SDS011;6026;48.784;9.198;2023-10-31T03:55:44;0.53;;;0.53;;
11933;SDS011;6026;48.784;9.198;2023-10-31T03:58:10;0.50;;;0.50;;
11933;SDS011;6026;48.784;9.198;2023-10-31T04:00:36;0.47;;;0.47;;
11933;SDS011;6026;48.784;9.198;2023-10-31T04:03:01;0.30;;;0.30;;
11933;SDS011;6026;48.784;9.198;2023-10-31T04:05:27;0.50;;;0.50;;
11933;SDS011;6026;48.784;9.198;2023-10-31T04:07:52;0.50;;;0.50;;
11933;SDS011;6026;48.784;9.198;2023-10-31T04:10:18;0.60;;;0.60;;
11933;SDS011;6026;48.784;9.198;2023-10-31T04:12:44;0.30;;;0.30;;
11933;SDS011;6026;48.784;9.198;2023-10-31T04:15:10;0.70;;;0.70;;
11933;SDS011;6026;48.784;9.198;2023-10-31T04:17:35;0.50;;;0.50;;
11933;SDS011;6026;48.784;9.198;2023-10-31T04:20:02;0.30;;;0.30;;
11933;SDS011;6026;48.784;9.198;2023-10-31T04:22:28;0.20;;;0.20;;
11933;SDS011;6026;48.784;9.198;2023-10-31T04:24:53;0.60;;;0.60;;
11933;SDS011;6026;48.784;9.198;2023-10-31T04:27:19;0.50;;;0.50;;
11933;SDS011;6026;48.784;9.198;2023-10-31T04:29:45;0.40;;;0.40;;
11933;SDS011;6026;48.784;9.198;2023-10-31T04:32:10;0.73;;;0.73;;
11933;SDS011;6026;48.784;9.198;2023-10-31T04:34:36;0.30;;;0.30;;
11933;SDS011;6026;48.784;9.198;2023-10-31T04:37:02;0.33;;;0.33;;
11933;SDS011;6026;48.784;9.198;2023-10-31T04:39:27;0.70;;;0.70;;
11933;SDS011;6026;48.784;9.198;2023-10-31T04:41:54;0.50;;;0.50;;
11933;SDS011;6026;48.784;9.198;2023-10-31T04:44:19;0.60;;;0.60;;
11933;SDS011;6026;48.784;9.198;2023-10-31T04:46:45;0.40;;;0.40;;
11933;SDS011;6026;48.784;9.198;2023-10-31T04:49:11;0.70;;;0.70;;
11933;SDS011;6026;48.784;9.198;2023-10-31T04:51:36;0.60;;;0.60;;
11933;SDS011;6026;48.784;9.198;2023-10-31T04:54:02;0.50;;;0.50;;
11933;SDS011;6026;48.784;9.198;2023-10-31T04:56:31;0.50;;;0.50;;
11933;SDS011;6026;48.784;9.198;2023-10-31T04:58:57;0.40;;;0.40;;
11933;SDS011;6026;48.784;9.198;2023-10-31T05:01:23;0.30;;;0.30;;
11933;SDS011;6026;48.784;9.198;2023-10-31T05:03:49;0.43;;;0.43;;
11933;SDS011;6026;48.784;9.198;2023-10-31T05:06:18;0.43;;;0.43;;
11933;SDS011;6026;48.784;9.198;2023-10-31T05:08:45;0.60;;;0.60;;
11933;SDS011;6026;48.784;9.198;2023-10-31T05:11:11;0.60;;;0.60;;
11933;SDS011;6026;48.784;9.198;2023-10-31T05:13:38;0.50;;;0.50;;
11933;SDS011;6026;48.784;9.198;2023-10-31T05:16:03;0.40;;;0.40;;
11933;SDS011;6026;48.784;9.198;2023-10-31T05:18:29;0.50;;;0.50;;
11933;SDS011;6026;48.784;9.198;2023-10-31T05:20:55;0.60;;;0.60;;
11933;SDS011;6026;48.784;9.198;2023-10-31T05:23:20;0.60;;;0.60;;
11933;SDS011;6026;48.784;9.198;2023-10-31T05:25:46;0.50;;;0.50;;
11933;SDS011;6026;48.784;9.198;2023-10-31T05:28:11;0.60;;;0.60;;
11933;SDS011;6026;48.784;9.198;2023-10-31T05:30:37;0.60;;;0.60;;
11933;SDS011;6026;48.784;9.198;2023-10-31T05:33:02;0.57;;;0.57;;
11933;SDS011;6026;48.784;9.198;2023-10-31T05:35:28;0.30;;;0.30;;
11933;SDS011;6026;48.784;9.198;2023-10-31T05:37:54;0.40;;;0.40;;
11933;SDS011;6026;48.784;9.198;2023-10-31T05:40:20;0.50;;;0.50;;
11933;SDS011;6026;48.784;9.198;2023-10-31T05:42:46;0.30;;;0.30;;
11933;SDS011;6026;48.784;9.198;2023-10-31T05:45:12;0.40;;;0.40;;
11933;SDS011;6026;48.784;9.198;2023-10-31T05:47:38;0.47;;;0.47;;
11933;SDS011;6026;48.784;9.198;2023-10-31T05:50:04;0.50;;;0.50;;
11933;SDS011;6026;48.784;9.198;2023-10-31T05:52:30;0.53;;;0.53;;
11933;SDS011;6026;48.784;9.198;2023-10-31T05:54:57;0.40;;;0.40;;
11933;SDS011;6026;48.784;9.198;2023-10-31T05:57:23;0.20;;;0.20;;
11933;SDS011;6026;48.784;9.198;2023-10-31T05:59:48;0.50;;;0.50;;
11933;SDS011;6026;48.784;9.198;2023-10-31T06:02:14;0.60;;;0.60;;
11933;SDS011;6026;48.784;9.198;2023-10-31T06:04:40;0.50;;;0.50;;
11933;SDS011;6026;48.784;9.198;2023-10-31T06:07:06;0.43;;;0.43;;
11933;SDS011;6026;48.784;9.198;2023-10-31T06:09:32;0.50;;;0.50;;
11933;SDS011;6026;48.784;9.198;2023-10-31T06:12:00;0.40;;;0.40;;
11933;SDS011;6026;48.784;9.198;2023-10-31T06:14:26;0.30;;;0.30;;
11933;SDS011;6026;48.784;9.198;2023-10-31T06:16:52;0.60;;;0.60;;
11933;SDS011;6026;48.784;9.198;2023-10-31T06:19:18;0.40;;;0.40;;
11933;SDS011;6026;48.784;9.198;2023-10-31T06:21:43;0.50;;;0.50;;
11933;SDS011;6026;48.784;9.198;2023-10-31T06:24:09;0.50;;;0.50;;
11933;SDS011;6026;48.784;9.198;2023-10-31T06:26:35;0.37;;;0.37;;
11933;SDS011;6026;48.784;9.198;2023-10-31T06:29:00;0.60;;;0.60;;
11933;SDS011;6026;48.784;9.198;2023-10-31T06:31:26;0.50;;;0.50;;
11933;SDS011;6026;48.784;9.198;2023-10-31T06:33:52;0.40;;;0.40;;
11933;SDS011;6026;48.784;9.198;2023-10-31T06:36:17;0.40;;;0.40;;
11933;SDS011;6026;48.784;9.198;2023-10-31T06:38:43;0.77;;;0.77;;
11933;SDS011;6026;48.784;9.198;2023-10-31T06:41:08;0.43;;;0.43;;
11933;SDS011;6026;48.784;9.198;2023-10-31T06:43:34;0.47;;;0.47;;
11933;SDS011;6026;48.784;9.198;2023-10-31T06:46:00;0.70;;;0.70;;
11933;SDS011;6026;48.784;9.198;2023-10-31T06:48:27;0.40;;;0.40;;
11933;SDS011;6026;48.784;9.198;2023-10-31T06:50:53;0.60;;;0.60;;
11933;SDS011;6026;48.784;9.198;2023-10-31T06:53:18;0.60;;;0.60;;
11933;SDS011;6026;48.784;9.198;2023-10-31T06:55:44;0.50;;;0.50;;
11933;SDS011;6026;48.784;9.198;2023-10-31T06:58:09;0.40;;;0.40;;
11933;SDS011;6026;48.784;9.198;2023-10-31T07:00:35;0.43;;;0.43;;
11933;SDS011;6026;48.784;9.198;2023-10-31T07:03:00;0.40;;;0.40;;
11933;SDS011;6026;48.784;9.198;2023-10-31T07:05:31;0.60;;;0.60;;
11933;SDS011;6026;48.784;9.198;2023-10-31T07:07:57;0.40;;;0.40;;
11933;SDS011;6026;48.784;9.198;2023-10-31T07:10:22;0.50;;;0.50;;
11933;SDS011;6026;48.784;9.198;2023-10-31T07:12:48;0.53;;;0.53;;
11933;SDS011;6026;48.784;9.198;2023-10-31T07:15:13;0.70;;;0.70;;
11933;SDS011;6026;48.784;9.198;2023-10-31T07:17:39;0.47;;;0.47;;
11933;SDS011;6026;48.784;9.198;2023-10-31T07:20:05;0.60;;;0.60;;
11933;SDS011;6026;48.784;9.198;2023-10-31T07:22:31;0.60;;;0.60;;
11933;SDS011;6026;48.784;9.198;2023-10-31T07:24:58;0.50;;;0.50;;
11933;SDS011;6026;48.784;9.198;2023-10-31T07:27:24;0.50;;;0.50;;
11933;SDS011;6026;48.784;9.198;2023-10-31T07:29:50;0.80;;;0.80;;
11933;SDS011;6026;48.784;9.198;2023-10-31T07:32:15;0.57;;;0.57;;
11933;SDS011;6026;48.784;9.198;2023-10-31T07:34:41;0.63;;;0.63;;
11933;SDS011;6026;48.784;9.198;2023-10-31T07:37:09;0.50;;;0.50;;
11933;SDS011;6026;48.784;9.198;2023-10-31T07:39:35;0.50;;;0.50;;
11933;SDS011;6026;48.784;9.198;2023-10-31T07:42:00;0.47;;;0.47;;
11933;SDS011;6026;48.784;9.198;2023-10-31T07:44:26;0.60;;;0.60;;
11933;SDS011;6026;48.784;9.198;2023-10-31T07:46:51;0.60;;;0.60;;
11933;SDS011;6026;48.784;9.198;2023-10-31T07:49:17;0.53;;;0.53;;
11933;SDS011;6026;48.784;9.198;2023-10-31T07:51:42;0.50;;;0.50;;
11933;SDS011;6026;48.784;9.198;2023-10-31T07:54:08;0.37;;;0.37;;
11933;SDS011;6026;48.784;9.198;2023-10-31T07:56:34;0.67;;;0.67;;
11933;SDS011;6026;48.784;9.198;2023-10-31T07:59:01;0.60;;;0.60;;
11933;SDS011;6026;48.784;9.198;2023-10-31T08:01:27;0.60;;;0.60;;
11933;SDS011;6026;48.784;9.198;2023-10-31T08:03:52;0.60;;;0.60;;
11933;SDS011;6026;48.784;9.198;2023-10-31T08:06:18;0.40;;;0.40;;
11933;SDS011;6026;48.784;9.198;2023-10-31T08:08:44;0.40;;;0.40;;
11933;SDS011;6026;48.784;9.198;2023-10-31T08:11:10;0.63;;;0.63;;
11933;SDS011;6026;48.784;9.198;2023-10-31T08:13:36;0.60;;;0.60;;
11933;SDS011;6026;48.784;9.198;2023-10-31T08:16:03;0.60;;;0.60;;
11933;SDS011;6026;48.784;9.198;2023-10-31T08:18:29;0.53;;;0.53;;
11933;SDS011;6026;48.784;9.198;2023-10-31T08:20:55;0.73;;;0.73;;
11933;SDS011;6026;48.784;9.198;2023-10-31T08:23:20;0.70;;;0.70;;
11933;SDS011;6026;48.784;9.198;2023-10-31T08:25:46;0.70;;;0.70;;
11933;SDS011;6026;48.784;9.198;2023-10-31T08:28:12;0.70;;;0.70;;
11933;SDS011;6026;48.784;9.198;2023-10-31T08:30:37;0.70;;;0.70;;
11933;SDS011;6026;48.784;9.198;2023-10-31T08:33:04;0.70;;;0.70;;
11933;SDS011;6026;48.784;9.198;2023-10-31T08:35:29;0.80;;;0.80;;
11933;SDS011;6026;48.784;9.198;2023-10-31T08:37:55;0.70;;;0.70;;
11933;SDS011;6026;48.784;9.198;2023-10-31T08:40:20;0.80;;;0.80;;
11933;SDS011;6026;48.784;9.198;2023-10-31T08:42:46;0.73;;;0.73;;
11933;SDS011;6026;48.784;9.198;2023-10-31T08:45:12;0.77;;;0.77;;
11933;SDS011;6026;48.784;9.198;2023-10-31T08:47:37;0.70;;;0.70;;
11933;SDS011;6026;48.784;9.198;2023-10-31T08:50:03;0.80;;;0.80;;
11933;SDS011;6026;48.784;9.198;2023-10-31T08:52:29;0.60;;;0.60;;
11933;SDS011;6026;48.784;9.198;2023-10-31T08:54:54;0.80;;;0.80;;
11933;SDS011;6026;48.784;9.198;2023-10-31T08:57:20;0.83;;;0.83;;
11933;SDS011;6026;48.784;9.198;2023-10-31T08:59:47;0.80;;;0.80;;
11933;SDS011;6026;48.784;9.198;2023-10-31T09:02:12;0.70;;;0.70;;
11933;SDS011;6026;48.784;9.198;2023-10-31T09:04:38;0.63;;;0.63;;
11933;SDS011;6026;48.784;9.198;2023-10-31T09:07:03;0.77;;;0.77;;
11933;SDS011;6026;48.784;9.198;2023-10-31T09:09:29;0.70;;;0.70;;
11933;SDS011;6026;48.784;9.198;2023-10-31T09:12:07;0.80;;;0.80;;
11933;SDS011;6026;48.784;9.198;2023-10-31T09:14:32;0.80;;;0.80;;
11933;SDS011;6026;48.784;9.198;2023-10-31T09:16:58;0.90;;;0.90;;
11933;SDS011;6026;48.784;9.198;2023-10-31T09:19:24;0.80;;;0.80;;
11933;SDS011;6026;48.784;9.198;2023-10-31T09:21:49;0.80;;;0.80;;
11933;SDS011;6026;48.784;9.198;2023-10-31T09:24:15;0.70;;;0.70;;
11933;SDS011;6026;48.784;9.198;2023-10-31T09:27:12;0.90;;;0.90;;
11933;SDS011;6026;48.784;9.198;2023-10-31T09:29:38;0.90;;;0.90;;
11933;SDS011;6026;48.784;9.198;2023-10-31T09:32:04;1.00;;;1.00;;
11933;SDS011;6026;48.784;9.198;2023-10-31T09:34:31;0.80;;;0.80;;
11933;SDS011;6026;48.784;9.198;2023-10-31T09:36:57;0.77;;;0.77;;
11933;SDS011;6026;48.784;9.198;2023-10-31T09:39:23;1.00;;;1.00;;
11933;SDS011;6026;48.784;9.198;2023-10-31T09:41:49;0.90;;;0.90;;
11933;SDS011;6026;48.784;9.198;2023-10-31T09:44:14;0.90;;;0.90;;
11933;SDS011;6026;48.784;9.198;2023-10-31T09:46:40;0.90;;;0.90;;
11933;SDS011;6026;48.784;9.198;2023-10-31T09:49:06;0.97;;;0.97;;
11933;SDS011;6026;48.784;9.198;2023-10-31T09:51:36;0.80;;;0.80;;
11933;SDS011;6026;48.784;9.198;2023-10-31T09:54:02;0.80;;;0.80;;
11933;SDS011;6026;48.784;9.198;2023-10-31T09:56:30;0.80;;;0.80;;
11933;SDS011;6026;48.784;9.198;2023-10-31T09:59:00;1.00;;;1.00;;
11933;SDS011;6026;48.784;9.198;2023-10-31T10:01:27;0.90;;;0.90;;
11933;SDS011;6026;48.784;9.198;2023-10-31T10:03:53;0.90;;;0.90;;
11933;SDS011;6026;48.784;9.198;2023-10-31T10:06:20;0.90;;;0.90;;
11933;SDS011;6026;48.784;9.198;2023-10-31T10:08:48;0.97;;;0.97;;
11933;SDS011;6026;48.784;9.198;2023-10-31T10:11:14;0.80;;;0.80;;
11933;SDS011;6026;48.784;9.198;2023-10-31T10:13:39;0.77;;;0.77;;
11933;SDS011;6026;48.784;9.198;2023-10-31T10:16:05;0.80;;;0.80;;
11933;SDS011;6026;48.784;9.198;2023-10-31T10:18:31;0.80;;;0.80;;
11933;SDS011;6026;48.784;9.198;2023-10-31T10:21:01;0.90;;;0.90;;
11933;SDS011;6026;48.784;9.198;2023-10-31T10:23:27;0.90;;;0.90;;
11933;SDS011;6026;48.784;9.198;2023-10-31T10:25:54;0.90;;;0.90;;
11933;SDS011;6026;48.784;9.198;2023-10-31T10:28:21;0.70;;;0.70;;
11933;SDS011;6026;48.784;9.198;2023-10-31T10:30:47;0.90;;;0.90;;
11933;SDS011;6026;48.784;9.198;2023-10-31T10:33:13;0.70;;;0.70;;
11933;SDS011;6026;48.784;9.198;2023-10-31T10:35:40;0.80;;;0.80;;
11933;SDS011;6026;48.784;9.198;2023-10-31T10:38:08;0.80;;;0.80;;
11933;SDS011;6026;48.784;9.198;2023-10-31T10:40:44;0.80;;;0.80;;
11933;SDS011;6026;48.784;9.198;2023-10-31T10:43:12;0.73;;;0.73;;
11933;SDS011;6026;48.784;9.198;2023-10-31T10:45:44;0.80;;;0.80;;
11933;SDS011;6026;48.784;9.198;2023-10-31T10:48:11;0.70;;;0.70;;
11933;SDS011;6026;48.784;9.198;2023-10-31T10:50:41;0.70;;;0.70;;
11933;SDS011;6026;48.784;9.198;2023-10-31T10:56:24;0.70;;;0.70;;
11933;SDS011;6026;48.784;9.198;2023-10-31T11:01:48;0.60;;;0.60;;
11933;SDS011;6026;48.784;9.198;2023-10-31T11:04:14;0.80;;;0.80;;
11933;SDS011;6026;48.784;9.198;2023-10-31T11:06:42;0.80;;;0.80;;
11933;SDS011;6026;48.784;9.198;2023-10-31T11:09:08;0.80;;;0.80;;
11933;SDS011;6026;48.784;9.198;2023-10-31T11:11:35;0.80;;;0.80;;
11933;SDS011;6026;48.784;9.198;2023-10-31T11:14:02;0.90;;;0.90;;
11933;SDS011;6026;48.784;9.198;2023-10-31T11:19:17;0.73;;;0.73;;
11933;SDS011;6026;48.784;9.198;2023-10-31T11:21:52;0.80;;;0.80;;
11933;SDS011;6026;48.784;9.198;2023-10-31T11:24:36;0.80;;;0.80;;
11933;SDS011;6026;48.784;9.198;2023-10-31T11:27:02;0.90;;;0.90;;
11933;SDS011;6026;48.784;9.198;2023-10-31T11:29:30;0.90;;;0.90;;
11933;SDS011;6026;48.784;9.198;2023-10-31T11:31:56;0.77;;;0.77;;
11933;SDS011;6026;48.784;9.198;2023-10-31T11:34:26;0.80;;;0.80;;
11933;SDS011;6026;48.784;9.198;2023-10-31T11:36:53;0.70;;;0.70;;
11933;SDS011;6026;48.784;9.198;2023-10-31T11:39:19;0.70;;;0.70;;
11933;SDS011;6026;48.784;9.198;2023-10-31T11:41:50;0.70;;;0.70;;
11933;SDS011;6026;48.784;9.198;2023-10-31T11:44:21;0.90;;;0.90;;
11933;SDS011;6026;48.784;9.198;2023-10-31T11:46:49;0.80;;;0.80;;
11933;SDS011;6026;48.784;9.198;2023-10-31T11:49:17;0.80;;;0.80;;
11933;SDS011;6026;48.784;9.198;2023-10-31T11:51:46;0.90;;;0.90;;
11933;SDS011;6026;48.784;9.198;2023-10-31T11:54:13;0.80;;;0.80;;
11933;SDS011;6026;48.784;9.198;2023-10-31T11:56:38;0.67;;;0.67;;
11933;SDS011;6026;48.784;9.198;2023-10-31T11:59:05;0.80;;;0.80;;
11933;SDS011;6026;48.784;9.198;2023-10-31T12:01:33;0.83;;;0.83;;
11933;SDS011;6026;48.784;9.198;2023-10-31T12:03:59;0.90;;;0.90;;
11933;SDS011;6026;48.784;9.198;2023-10-31T12:06:25;0.90;;;0.90;;
11933;SDS011;6026;48.784;9.198;2023-10-31T12:08:50;0.80;;;0.80;;
11933;SDS011;6026;48.784;9.198;2023-10-31T12:11:17;0.80;;;0.80;;
11933;SDS011;6026;48.784;9.198;2023-10-31T12:13:52;0.80;;;0.80;;
11933;SDS011;6026;48.784;9.198;2023-10-31T12:16:23;0.80;;;0.80;;
11933;SDS011;6026;48.784;9.198;2023-10-31T12:18:57;0.90;;;0.90;;
11933;SDS011;6026;48.784;9.198;2023-10-31T12:24:08;0.80;;;0.80;;
11933;SDS011;6026;48.784;9.198;2023-10-31T12:26:38;0.80;;;0.80;;
11933;SDS011;6026;48.784;9.198;2023-10-31T12:29:15;0.80;;;0.80;;
11933;SDS011;6026;48.784;9.198;2023-10-31T12:31:42;0.87;;;0.87;;
11933;SDS011;6026;48.784;9.198;2023-10-31T12:34:10;0.90;;;0.90;;
11933;SDS011;6026;48.784;9.198;2023-10-31T12:36:36;0.80;;;0.80;;
11933;SDS011;6026;48.784;9.198;2023-10-31T12:39:03;0.70;;;0.70;;
11933;SDS011;6026;48.784;9.198;2023-10-31T12:41:32;0.87;;;0.87;;
11933;SDS011;6026;48.784;9.198;2023-10-31T12:43:58;0.80;;;0.80;;
11933;SDS011;6026;48.784;9.198;2023-10-31T12:46:28;0.90;;;0.90;;
11933;SDS011;6026;48.784;9.198;2023-10-31T12:48:55;0.73;;;0.73;;
11933;SDS011;6026;48.784;9.198;2023-10-31T12:51:21;0.80;;;0.80;;
11933;SDS011;6026;48.784;9.198;2023-10-31T12:53:53;0.73;;;0.73;;
11933;SDS011;6026;48.784;9.198;2023-10-31T12:56:37;0.70;;;0.70;;
11933;SDS011;6026;48.784;9.198;2023-10-31T12:59:07;0.80;;;0.80;;
11933;SDS011;6026;48.784;9.198;2023-10-31T13:01:42;0.67;;;0.67;;
11933;SDS011;6026;48.784;9.198;2023-10-31T13:04:08;0.80;;;0.80;;
11933;SDS011;6026;48.784;9.198;2023-10-31T13:06:34;0.60;;;0.60;;
11933;SDS011;6026;48.784;9.198;2023-10-31T13:09:00;0.80;;;0.80;;
11933;SDS011;6026;48.784;9.198;2023-10-31T13:11:31;0.80;;;0.80;;
11933;SDS011;6026;48.784;9.198;2023-10-31T13:13:57;1.00;;;1.00;;
11933;SDS011;6026;48.784;9.198;2023-10-31T13:16:26;0.80;;;0.80;;
11933;SDS011;6026;48.784;9.198;2023-10-31T13:18:53;0.70;;;0.70;;
11933;SDS011;6026;48.784;9.198;2023-10-31T13:21:19;0.80;;;0.80;;
11933;SDS011;6026;48.784;9.198;2023-10-31T13:23:45;0.77;;;0.77;;
11933;SDS011;6026;48.784;9.198;2023-10-31T13:26:12;0.77;;;0.77;;
11933;SDS011;6026;48.784;9.198;2023-10-31T13:28:38;0.70;;;0.70;;
11933;SDS011;6026;48.784;9.198;2023-10-31T13:31:05;0.70;;;0.70;;
11933;SDS011;6026;48.784;9.198;2023-10-31T13:33:31;0.70;;;0.70;;
11933;SDS011;6026;48.784;9.198;2023-10-31T13:35:57;0.80;;;0.80;;
11933;SDS011;6026;48.784;9.198;2023-10-31T13:38:23;0.90;;;0.90;;
11933;SDS011;6026;48.784;9.198;2023-10-31T13:40:48;0.80;;;0.80;;
11933;SDS011;6026;48.784;9.198;2023-10-31T13:43:14;0.80;;;0.80;;
11933;SDS011;6026;48.784;9.198;2023-10-31T13:45:39;0.90;;;0.90;;
11933;SDS011;6026;48.784;9.198;2023-10-31T13:48:05;0.90;;;0.90;;
11933;SDS011;6026;48.784;9.198;2023-10-31T13:50:31;0.73;;;0.73;;
11933;SDS011;6026;48.784;9.198;2023-10-31T13:52:56;0.80;;;0.80;;
11933;SDS011;6026;48.784;9.198;2023-10-31T13:55:22;0.87;;;0.87;;
11933;SDS011;6026;48.784;9.198;2023-10-31T13:57:48;0.80;;;0.80;;
11933;SDS011;6026;48.784;9.198;2023-10-31T14:00:14;0.70;;;0.70;;
11933;SDS011;6026;48.784;9.198;2023-10-31T14:02:40;0.70;;;0.70;;
11933;SDS011;6026;48.784;9.198;2023-10-31T14:05:06;0.90;;;0.90;;
11933;SDS011;6026;48.784;9.198;2023-10-31T14:07:32;0.80;;;0.80;;
11933;SDS011;6026;48.784;9.198;2023-10-31T14:09:57;0.70;;;0.70;;
11933;SDS011;6026;48.784;9.198;2023-10-31T14:12:23;0.87;;;0.87;;
11933;SDS011;6026;48.784;9.198;2023-10-31T14:14:50;0.80;;;0.80;;
11933;SDS011;6026;48.784;9.198;2023-10-31T14:17:16;0.80;;;0.80;;
11933;SDS011;6026;48.784;9.198;2023-10-31T14:19:42;0.70;;;0.70;;
11933;SDS011;6026;48.784;9.198;2023-10-31T14:22:08;0.80;;;0.80;;
11933;SDS011;6026;48.784;9.198;2023-10-31T14:24:33;0.70;;;0.70;;
11933;SDS011;6026;48.784;9.198;2023-10-31T14:27:00;0.80;;;0.80;;
11933;SDS011;6026;48.784;9.198;2023-10-31T14:29:25;0.80;;;0.80;;
11933;SDS011;6026;48.784;9.198;2023-10-31T14:31:51;0.77;;;0.77;;
11933;SDS011;6026;48.784;9.198;2023-10-31T14:34:19;0.50;;;0.50;;
11933;SDS011;6026;48.784;9.198;2023-10-31T14:36:45;0.90;;;0.90;;
11933;SDS011;6026;48.784;9.198;2023-10-31T14:39:11;0.90;;;0.90;;
11933;SDS011;6026;48.784;9.198;2023-10-31T14:41:37;0.70;;;0.70;;
11933;SDS011;6026;48.784;9.198;2023-10-31T14:44:02;0.80;;;0.80;;
11933;SDS011;6026;48.784;9.198;2023-10-31T14:46:28;0.80;;;0.80;;
11933;SDS011;6026;48.784;9.198;2023-10-31T14:48:55;0.80;;;0.80;;
11933;SDS011;6026;48.784;9.198;2023-10-31T14:51:20;0.70;;;0.70;;
11933;SDS011;6026;48.784;9.198;2023-10-31T14:53:46;0.80;;;0.80;;
11933;SDS011;6026;48.784;9.198;2023-10-31T14:56:11;0.70;;;0.70;;
11933;SDS011;6026;48.784;9.198;2023-10-31T14:58:38;0.80;;;0.80;;
11933;SDS011;6026;48.784;9.198;2023-10-31T15:01:04;0.80;;;0.80;;
11933;SDS011;6026;48.784;9.198;2023-10-31T15:03:30;0.80;;;0.80;;
11933;SDS011;6026;48.784;9.198;2023-10-31T15:05:56;0.70;;;0.70;;